N410HA KBED-KPYM
Flight info
| Callsign | N410HA |
|---|---|
| Flight time | 0h 23m |
| Altitude | 1500 |
| Route | VFR |
| Aircraft | EC30/L-VGD/C |
Departure
| Time | 2026-05-08 00:35 |
|---|---|
| Airport | Laurence G Hanscom Field (KBED) |
Arrival
| Time | 2026-05-08 00:59 |
|---|---|
| Airport | Plymouth Municipal Airport (KPYM) |
| Time | Latitude | Longitude | Altitude | Speed | Heading |
|---|---|---|---|---|---|
| 2026-05-08 00:09 | 42.46482 | -71.28128 | 125 ft | 0 kts | 6° |
| 2026-05-08 00:34 | 42.46509 | -71.28100 | 147 ft | 16 kts | 80° |
| 2026-05-08 00:35 | 42.46550 | -71.27956 | 345 ft | 32 kts | 120° |
| 2026-05-08 00:35 | 42.46454 | -71.27575 | 725 ft | 55 kts | 147° |
| 2026-05-08 00:35 | 42.46227 | -71.26959 | 1097 ft | 70 kts | 126° |
| 2026-05-08 00:35 | 42.45954 | -71.26366 | 1408 ft | 89 kts | 130° |
| 2026-05-08 00:36 | 42.45599 | -71.25555 | 1477 ft | 115 kts | 130° |
| 2026-05-08 00:36 | 42.45147 | -71.24625 | 1487 ft | 118 kts | 143° |
| 2026-05-08 00:36 | 42.44540 | -71.23862 | 1486 ft | 117 kts | 152° |
| 2026-05-08 00:36 | 42.43913 | -71.23156 | 1481 ft | 117 kts | 152° |
| 2026-05-08 00:37 | 42.43284 | -71.22454 | 1486 ft | 117 kts | 154° |
| 2026-05-08 00:37 | 42.42654 | -71.21751 | 1493 ft | 118 kts | 152° |
| 2026-05-08 00:37 | 42.42021 | -71.21027 | 1489 ft | 119 kts | 152° |
| 2026-05-08 00:38 | 42.41152 | -71.19029 | 1486 ft | 124 kts | 122° |
| 2026-05-08 00:38 | 42.40837 | -71.17957 | 1485 ft | 125 kts | 120° |
| 2026-05-08 00:38 | 42.40525 | -71.16856 | 1482 ft | 124 kts | 120° |
| 2026-05-08 00:38 | 42.40138 | -71.15842 | 1494 ft | 119 kts | 139° |
| 2026-05-08 00:39 | 42.39537 | -71.15108 | 1494 ft | 116 kts | 155° |
| 2026-05-08 00:39 | 42.38870 | -71.14480 | 1487 ft | 116 kts | 159° |
| 2026-05-08 00:39 | 42.38200 | -71.13869 | 1484 ft | 115 kts | 159° |
| 2026-05-08 00:39 | 42.37537 | -71.13261 | 1486 ft | 115 kts | 159° |
| 2026-05-08 00:40 | 42.36863 | -71.12643 | 1483 ft | 115 kts | 158° |
| 2026-05-08 00:40 | 42.36201 | -71.12035 | 1483 ft | 116 kts | 159° |
| 2026-05-08 00:40 | 42.35600 | -71.11269 | 1446 ft | 125 kts | 136° |
| 2026-05-08 00:40 | 42.35384 | -71.10113 | 1424 ft | 130 kts | 95° |
| 2026-05-08 00:41 | 42.35602 | -71.08940 | 1460 ft | 128 kts | 73° |
| 2026-05-08 00:41 | 42.36092 | -71.07947 | 1451 ft | 127 kts | 48° |
| 2026-05-08 00:41 | 42.36704 | -71.07106 | 1481 ft | 125 kts | 45° |
| 2026-05-08 00:41 | 42.37304 | -71.06246 | 1492 ft | 127 kts | 51° |
| 2026-05-08 00:42 | 42.37545 | -71.05110 | 1494 ft | 127 kts | 96° |
| 2026-05-08 00:42 | 42.37204 | -71.04053 | 1500 ft | 119 kts | 142° |
| 2026-05-08 00:42 | 42.36509 | -71.03621 | 1502 ft | 106 kts | 187° |
| 2026-05-08 00:42 | 42.35760 | -71.03457 | 1493 ft | 108 kts | 184° |
| 2026-05-08 00:43 | 42.35012 | -71.03261 | 1489 ft | 108 kts | 182° |
| 2026-05-08 00:43 | 42.34269 | -71.03076 | 1491 ft | 108 kts | 182° |
| 2026-05-08 00:43 | 42.33525 | -71.03003 | 1496 ft | 101 kts | 202° |
| 2026-05-08 00:43 | 42.32839 | -71.03239 | 1482 ft | 102 kts | 206° |
| 2026-05-08 00:44 | 42.32144 | -71.03468 | 1485 ft | 102 kts | 206° |
| 2026-05-08 00:44 | 42.31443 | -71.03661 | 1459 ft | 107 kts | 198° |
| 2026-05-08 00:44 | 42.30695 | -71.03624 | 1505 ft | 108 kts | 189° |
| 2026-05-08 00:44 | 42.29917 | -71.03610 | 1487 ft | 113 kts | 194° |
| 2026-05-08 00:45 | 42.29122 | -71.03687 | 1485 ft | 114 kts | 196° |
| 2026-05-08 00:45 | 42.28321 | -71.03757 | 1486 ft | 114 kts | 194° |
| 2026-05-08 00:45 | 42.27514 | -71.03625 | 1471 ft | 119 kts | 181° |
| 2026-05-08 00:45 | 42.26702 | -71.03356 | 1483 ft | 120 kts | 179° |
| 2026-05-08 00:46 | 42.25893 | -71.03003 | 1485 ft | 120 kts | 175° |
| 2026-05-08 00:46 | 42.25093 | -71.02654 | 1489 ft | 121 kts | 174° |
| 2026-05-08 00:46 | 42.24334 | -71.02105 | 1454 ft | 128 kts | 155° |
| 2026-05-08 00:46 | 42.23729 | -71.01196 | 1478 ft | 128 kts | 141° |
| 2026-05-08 00:47 | 42.23137 | -71.00275 | 1484 ft | 129 kts | 141° |
| 2026-05-08 00:47 | 42.22465 | -70.99496 | 1488 ft | 128 kts | 152° |
| 2026-05-08 00:47 | 42.21775 | -70.98753 | 1481 ft | 127 kts | 153° |
| 2026-05-08 00:47 | 42.21139 | -70.97885 | 1443 ft | 134 kts | 136° |
| 2026-05-08 00:48 | 42.20683 | -70.96815 | 1480 ft | 131 kts | 129° |
| 2026-05-08 00:48 | 42.20223 | -70.95729 | 1488 ft | 132 kts | 129° |
| 2026-05-08 00:48 | 42.19767 | -70.94655 | 1489 ft | 134 kts | 129° |
| 2026-05-08 00:48 | 42.19268 | -70.93617 | 1491 ft | 128 kts | 143° |
| 2026-05-08 00:49 | 42.18536 | -70.92970 | 1492 ft | 124 kts | 162° |
| 2026-05-08 00:49 | 42.17770 | -70.92439 | 1488 ft | 124 kts | 165° |
| 2026-05-08 00:49 | 42.17001 | -70.91907 | 1486 ft | 124 kts | 165° |
| 2026-05-08 00:49 | 42.16234 | -70.91360 | 1485 ft | 123 kts | 164° |
| 2026-05-08 00:50 | 42.15468 | -70.90807 | 1482 ft | 124 kts | 164° |
| 2026-05-08 00:50 | 42.14705 | -70.90252 | 1486 ft | 124 kts | 164° |
| 2026-05-08 00:50 | 42.13945 | -70.89697 | 1486 ft | 124 kts | 164° |
| 2026-05-08 00:50 | 42.13189 | -70.89143 | 1490 ft | 124 kts | 163° |
| 2026-05-08 00:51 | 42.12425 | -70.88584 | 1486 ft | 124 kts | 163° |
| 2026-05-08 00:51 | 42.11666 | -70.88028 | 1488 ft | 124 kts | 163° |
| 2026-05-08 00:51 | 42.10903 | -70.87468 | 1485 ft | 124 kts | 163° |
| 2026-05-08 00:51 | 42.10142 | -70.86910 | 1488 ft | 124 kts | 163° |
| 2026-05-08 00:52 | 42.09378 | -70.86348 | 1484 ft | 124 kts | 163° |
| 2026-05-08 00:52 | 42.08619 | -70.85791 | 1491 ft | 124 kts | 163° |
| 2026-05-08 00:52 | 42.07842 | -70.85220 | 1487 ft | 126 kts | 163° |
| 2026-05-08 00:52 | 42.07068 | -70.84652 | 1483 ft | 126 kts | 163° |
| 2026-05-08 00:53 | 42.06295 | -70.84085 | 1483 ft | 126 kts | 164° |
| 2026-05-08 00:53 | 42.05530 | -70.83525 | 1485 ft | 125 kts | 163° |
| 2026-05-08 00:53 | 42.04764 | -70.82963 | 1485 ft | 126 kts | 163° |
| 2026-05-08 00:53 | 42.03986 | -70.82393 | 1487 ft | 126 kts | 163° |
| 2026-05-08 00:54 | 42.03215 | -70.81828 | 1487 ft | 126 kts | 163° |
| 2026-05-08 00:54 | 42.02438 | -70.81259 | 1482 ft | 126 kts | 163° |
| 2026-05-08 00:54 | 42.01677 | -70.80701 | 1490 ft | 125 kts | 163° |
| 2026-05-08 00:54 | 42.00900 | -70.80132 | 1487 ft | 126 kts | 162° |
| 2026-05-08 00:55 | 42.00134 | -70.79589 | 1461 ft | 113 kts | 164° |
| 2026-05-08 00:55 | 41.99496 | -70.79156 | 1408 ft | 96 kts | 158° |
| 2026-05-08 00:55 | 41.98986 | -70.78770 | 1547 ft | 70 kts | 157° |
| 2026-05-08 00:55 | 41.98624 | -70.78507 | 1740 ft | 51 kts | 154° |
| 2026-05-08 00:56 | 41.98284 | -70.78168 | 1851 ft | 78 kts | 144° |
| 2026-05-08 00:56 | 41.97789 | -70.77585 | 1712 ft | 106 kts | 144° |
| 2026-05-08 00:56 | 41.97217 | -70.76942 | 1553 ft | 108 kts | 148° |
| 2026-05-08 00:56 | 41.96615 | -70.76348 | 1376 ft | 105 kts | 153° |
| 2026-05-08 00:57 | 41.95999 | -70.75826 | 1204 ft | 102 kts | 156° |
| 2026-05-08 00:57 | 41.95382 | -70.75343 | 1031 ft | 100 kts | 158° |
| 2026-05-08 00:57 | 41.94792 | -70.74895 | 944 ft | 96 kts | 157° |
| 2026-05-08 00:57 | 41.94191 | -70.74470 | 793 ft | 97 kts | 159° |
| 2026-05-08 00:58 | 41.93616 | -70.74069 | 757 ft | 90 kts | 158° |
| 2026-05-08 00:58 | 41.93072 | -70.73691 | 696 ft | 83 kts | 160° |
| 2026-05-08 00:58 | 41.92601 | -70.73328 | 652 ft | 70 kts | 156° |
| 2026-05-08 00:58 | 41.92229 | -70.72997 | 575 ft | 57 kts | 155° |
| 2026-05-08 00:59 | 41.91933 | -70.72727 | 482 ft | 43 kts | 167° |
| 2026-05-08 00:59 | 41.91712 | -70.72593 | 356 ft | 26 kts | 193° |
| 2026-05-08 00:59 | 41.91569 | -70.72623 | 284 ft | 19 kts | 213° |
| 2026-05-08 00:59 | 41.91463 | -70.72759 | 245 ft | 21 kts | 214° |
| 2026-05-08 01:00 | 41.91387 | -70.72851 | 204 ft | 7 kts | 206° |
| 2026-05-08 01:00 | 41.91341 | -70.72907 | 183 ft | 10 kts | 213° |
| 2026-05-08 01:00 | 41.91309 | -70.72948 | 169 ft | 8 kts | 205° |
| 2026-05-08 01:00 | 41.91302 | -70.72958 | 148 ft | 0 kts | 210° |